createdAt,value
2023-03-07T00:02:38.404Z,15.00
2023-03-07T00:05:42.500Z,16.20
2023-03-07T00:08:45.152Z,12.93
2023-03-07T00:11:47.674Z,15.70
2023-03-07T00:14:50.199Z,13.20
2023-03-07T00:17:52.868Z,16.07
2023-03-07T00:20:59.443Z,16.57
2023-03-07T00:24:02.097Z,15.07
2023-03-07T00:27:05.303Z,11.87
2023-03-07T00:30:09.645Z,17.42
2023-03-07T00:33:12.120Z,13.93
2023-03-07T00:36:17.833Z,16.30
2023-03-07T00:39:20.380Z,18.43
2023-03-07T00:42:23.022Z,19.47
2023-03-07T00:45:25.637Z,15.00
2023-03-07T00:48:29.018Z,14.47
2023-03-07T00:51:32.990Z,12.95
2023-03-07T00:54:35.536Z,13.80
2023-03-07T00:57:38.101Z,13.33
2023-03-07T01:00:40.745Z,11.27
2023-03-07T01:03:43.813Z,12.93
2023-03-07T01:06:47.816Z,14.30
2023-03-07T01:09:53.073Z,11.47
2023-03-07T01:12:55.617Z,10.50
2023-03-07T01:16:07.147Z,13.23
2023-03-07T01:19:12.552Z,14.50
2023-03-07T01:22:16.492Z,11.37
2023-03-07T01:28:21.422Z,10.87
2023-03-07T01:31:24.027Z,13.63
2023-03-07T01:34:26.620Z,13.47
2023-03-07T01:37:30.452Z,12.30
2023-03-07T01:43:37.598Z,11.13
2023-03-07T01:46:44.034Z,12.23
2023-03-07T01:49:46.632Z,11.63
2023-03-07T01:52:52.444Z,11.77
2023-03-07T01:55:55.065Z,17.40
2023-03-07T01:58:57.677Z,13.50
2023-03-07T02:02:02.575Z,11.30
2023-03-07T02:05:09.428Z,12.27
2023-03-07T02:08:15.010Z,13.60
2023-03-07T02:11:17.926Z,13.13
2023-03-07T02:14:20.420Z,13.15
2023-03-07T02:17:23.118Z,13.50
2023-03-07T02:20:32.695Z,12.97
2023-03-07T02:23:42.195Z,9.27
2023-03-07T02:26:46.623Z,13.03
2023-03-07T02:29:49.171Z,13.67
2023-03-07T02:32:51.971Z,12.33
2023-03-07T02:35:57.219Z,14.50
2023-03-07T02:39:02.025Z,13.80
2023-03-07T02:42:09.827Z,11.10
2023-03-07T02:45:14.146Z,12.00
2023-03-07T02:48:16.894Z,11.30
2023-03-07T02:51:19.380Z,12.93
2023-03-07T02:54:21.928Z,11.93
2023-03-07T02:57:26.026Z,10.97
2023-03-07T03:00:28.596Z,14.60
2023-03-07T03:03:31.441Z,11.60
2023-03-07T03:06:33.979Z,12.47
2023-03-07T03:09:36.622Z,12.50
2023-03-07T03:12:40.450Z,14.80
2023-03-07T03:18:45.471Z,17.20
2023-03-07T03:21:48.658Z,12.43
2023-03-07T03:24:51.299Z,12.75
2023-03-07T03:27:55.202Z,13.60
2023-03-07T03:34:00.704Z,14.30
2023-03-07T03:37:03.205Z,12.10
2023-03-07T03:40:14.099Z,11.77
2023-03-07T03:43:18.064Z,14.17
2023-03-07T03:49:23.089Z,11.50
2023-03-07T03:52:25.656Z,12.27
2023-03-07T03:55:28.141Z,11.80
2023-03-07T03:58:32.012Z,12.07
2023-03-07T04:04:37.257Z,13.40
2023-03-07T04:07:40.220Z,12.97
2023-03-07T04:10:43.781Z,15.43
2023-03-07T04:13:47.656Z,13.18
2023-03-07T04:19:53.023Z,15.27
2023-03-07T04:22:55.555Z,13.23
2023-03-07T04:25:59.391Z,15.77
2023-03-07T04:32:07.081Z,13.77
2023-03-07T04:35:10.467Z,16.17
2023-03-07T04:38:13.106Z,12.98
2023-03-07T04:41:17.559Z,18.80
2023-03-07T04:44:21.810Z,15.00
2023-03-07T04:47:24.642Z,15.70
2023-03-07T04:50:27.200Z,12.17
2023-03-07T04:53:29.902Z,14.00
2023-03-07T04:56:32.537Z,13.30
2023-03-07T04:59:39.268Z,12.83
2023-03-07T05:02:41.739Z,15.23
2023-03-07T05:05:44.345Z,14.57
2023-03-07T05:08:46.981Z,15.23
2023-03-07T05:11:49.624Z,18.87
2023-03-07T05:15:01.466Z,14.97
2023-03-07T05:18:04.200Z,15.73
2023-03-07T05:21:09.413Z,15.67
2023-03-07T05:24:12.091Z,12.77
2023-03-07T05:27:16.366Z,11.63
2023-03-07T05:30:22.565Z,13.67
2023-03-07T05:33:25.513Z,15.33
2023-03-07T05:36:28.202Z,14.82
2023-03-07T05:39:30.873Z,13.57
2023-03-07T05:42:33.429Z,11.53
2023-03-07T05:45:37.508Z,12.53
2023-03-07T05:48:40.025Z,14.30
2023-03-07T05:51:42.600Z,19.10
2023-03-07T05:54:45.133Z,12.10
2023-03-07T05:57:47.661Z,13.40
2023-03-07T06:00:51.564Z,9.83
2023-03-07T06:06:56.417Z,12.00
2023-03-07T06:09:59.165Z,11.97
2023-03-07T06:13:01.759Z,18.17
2023-03-07T06:16:06.135Z,14.93
2023-03-07T06:19:08.905Z,10.07
2023-03-07T06:22:11.359Z,14.53
2023-03-07T06:25:15.459Z,9.30
2023-03-07T06:28:18.012Z,13.23
2023-03-07T06:31:22.666Z,8.43
2023-03-07T06:34:25.333Z,15.23
2023-03-07T06:37:28.129Z,12.73
2023-03-07T06:40:30.881Z,14.27
2023-03-07T06:43:33.774Z,14.53
2023-03-07T06:46:37.759Z,11.80
2023-03-07T06:49:40.517Z,13.37
2023-03-07T06:52:43.115Z,8.47
2023-03-07T06:55:49.532Z,9.73
2023-03-07T06:58:52.339Z,15.87
2023-03-07T07:01:56.350Z,12.90
2023-03-07T07:05:01.256Z,11.73
2023-03-07T07:08:04.233Z,10.20
2023-03-07T07:11:06.978Z,14.07
2023-03-07T07:14:09.673Z,11.30
2023-03-07T07:17:13.686Z,16.37
2023-03-07T07:20:16.443Z,13.87
2023-03-07T07:23:20.660Z,14.07
2023-03-07T07:26:24.350Z,12.63
2023-03-07T07:29:27.193Z,11.15
2023-03-07T07:32:31.433Z,12.60
2023-03-07T07:35:34.262Z,9.57
2023-03-07T07:38:37.049Z,11.73
2023-03-07T07:41:39.726Z,12.10
2023-03-07T07:44:42.395Z,13.70
2023-03-07T07:47:49.020Z,11.10
2023-03-07T07:50:51.641Z,10.03
2023-03-07T07:53:54.190Z,6.43
2023-03-07T07:56:57.923Z,12.97
2023-03-07T08:00:00.381Z,11.90
2023-03-07T08:03:04.577Z,13.20
2023-03-07T08:06:07.344Z,11.20
2023-03-07T08:09:09.903Z,9.03
2023-03-07T08:12:13.201Z,12.13
2023-03-07T08:15:17.040Z,13.45
2023-03-07T08:21:25.143Z,11.63
2023-03-07T08:24:39.951Z,10.50
2023-03-07T08:27:43.423Z,13.70
2023-03-07T08:30:46.030Z,10.07
2023-03-07T08:33:50.617Z,11.20
2023-03-07T08:36:54.285Z,11.80
2023-03-07T08:42:59.512Z,8.87
2023-03-07T08:46:02.186Z,11.52
2023-03-07T08:49:06.307Z,12.97
2023-03-07T08:52:08.876Z,10.33
2023-03-07T08:55:11.437Z,14.73
2023-03-07T08:58:13.967Z,12.27
2023-03-07T09:01:16.492Z,10.23
2023-03-07T09:04:20.461Z,10.60
2023-03-07T09:07:23.128Z,15.57
2023-03-07T09:10:27.350Z,10.07
2023-03-07T09:13:29.975Z,10.53
2023-03-07T09:16:32.744Z,11.40
2023-03-07T09:19:36.646Z,6.20
2023-03-07T09:22:39.639Z,6.27
2023-03-07T09:25:42.169Z,11.95
2023-03-07T09:28:44.936Z,7.73
2023-03-07T09:31:47.602Z,6.43
2023-03-07T09:34:53.142Z,15.90
2023-03-07T09:37:55.689Z,7.53
2023-03-07T09:41:03.096Z,7.67
2023-03-07T09:44:12.042Z,6.93
2023-03-07T09:47:29.956Z,7.10
2023-03-07T09:50:41.183Z,8.80
2023-03-07T09:53:45.043Z,8.63
2023-03-07T09:56:48.875Z,6.87
2023-03-07T09:59:53.915Z,10.80
2023-03-07T10:02:59.725Z,9.53
2023-03-07T10:06:10.202Z,7.17
2023-03-07T10:09:16.877Z,7.13
2023-03-07T10:12:38.116Z,6.87
2023-03-07T10:15:46.575Z,8.87
2023-03-07T10:19:00.789Z,7.13
2023-03-07T10:22:11.135Z,8.97
2023-03-07T10:25:20.244Z,4.63
2023-03-07T10:28:25.382Z,9.40
2023-03-07T10:31:33.185Z,6.03
2023-03-07T10:34:37.982Z,6.07
2023-03-07T10:37:50.164Z,7.80
2023-03-07T10:40:56.174Z,7.83
2023-03-07T10:43:58.934Z,11.73
2023-03-07T10:47:01.768Z,10.82
2023-03-07T10:50:15.565Z,8.23
2023-03-07T10:53:26.344Z,11.75
2023-03-07T10:56:28.904Z,6.03
2023-03-07T10:59:31.496Z,9.77
2023-03-07T11:02:37.049Z,7.83
2023-03-07T11:05:40.698Z,9.27
2023-03-07T11:08:46.216Z,9.17
2023-03-07T11:11:57.649Z,14.90
2023-03-07T11:15:12.184Z,9.63
2023-03-07T11:18:27.513Z,7.63
2023-03-07T11:21:32.170Z,11.67
2023-03-07T11:24:40.547Z,11.30
2023-03-07T11:27:49.224Z,11.60
2023-03-07T11:30:53.538Z,9.03
2023-03-07T11:34:00.897Z,11.23
2023-03-07T11:37:16.660Z,7.73
2023-03-07T11:40:23.910Z,7.37
2023-03-07T11:43:41.692Z,9.00
2023-03-07T11:47:08.132Z,8.30
2023-03-07T11:50:23.292Z,12.93
2023-03-07T11:53:37.613Z,8.17
2023-03-07T11:56:45.740Z,6.90
2023-03-07T12:00:05.048Z,8.93
2023-03-07T12:03:21.619Z,8.47
2023-03-07T12:06:33.222Z,7.27
2023-03-07T12:09:43.324Z,9.27
2023-03-07T12:12:56.700Z,6.03
2023-03-07T12:16:06.471Z,9.77
2023-03-07T12:19:32.752Z,6.87
2023-03-07T12:22:42.499Z,8.53
2023-03-07T12:25:47.513Z,10.10
2023-03-07T12:28:54.421Z,7.63
2023-03-07T12:32:00.337Z,13.60
2023-03-07T12:35:08.140Z,7.07
2023-03-07T12:38:14.167Z,7.77
2023-03-07T12:41:25.528Z,9.30
2023-03-07T12:44:35.753Z,8.47
2023-03-07T12:47:51.401Z,11.30
2023-03-07T12:50:58.057Z,9.13
2023-03-07T12:54:05.067Z,8.43
2023-03-07T12:57:12.534Z,10.97
2023-03-07T13:00:18.982Z,11.30
2023-03-07T13:03:35.681Z,7.33
2023-03-07T13:06:39.805Z,11.33
2023-03-07T13:09:44.078Z,6.07
2023-03-07T13:12:46.700Z,6.07
2023-03-07T13:16:07.074Z,7.23
2023-03-07T13:19:44.626Z,6.03
2023-03-07T13:23:26.515Z,7.40
2023-03-07T13:26:29.070Z,8.03
2023-03-07T13:30:06.692Z,7.73
2023-03-07T13:33:27.718Z,5.13
2023-03-07T13:36:35.833Z,7.60
2023-03-07T13:39:39.047Z,9.33
2023-03-07T13:42:48.364Z,6.57
2023-03-07T13:45:52.914Z,9.93
2023-03-07T13:49:03.839Z,7.07
2023-03-07T13:52:40.576Z,5.37
2023-03-07T13:55:47.030Z,4.50
2023-03-07T13:58:53.322Z,6.77
2023-03-07T14:01:58.767Z,8.67
2023-03-07T14:05:03.181Z,11.90
2023-03-07T14:08:06.745Z,6.40
2023-03-07T14:11:17.807Z,6.53
2023-03-07T14:14:55.801Z,7.33
2023-03-07T14:18:12.600Z,5.20
2023-03-07T14:21:25.444Z,7.70
2023-03-07T14:24:37.140Z,6.10
2023-03-07T14:27:51.800Z,5.80
2023-03-07T14:30:56.755Z,7.23
2023-03-07T14:33:59.584Z,6.10
2023-03-07T14:37:06.576Z,5.95
2023-03-07T14:40:20.798Z,7.53
2023-03-07T14:43:32.558Z,5.23
2023-03-07T14:46:40.253Z,5.23
2023-03-07T14:49:47.143Z,3.57
2023-03-07T14:52:59.409Z,4.30
2023-03-07T14:56:02.318Z,4.40
2023-03-07T14:59:05.781Z,6.47
2023-03-07T15:02:17.663Z,4.68
2023-03-07T15:05:22.350Z,4.07
2023-03-07T15:08:29.631Z,4.17
2023-03-07T15:11:35.734Z,8.67
2023-03-07T15:14:41.670Z,5.57
2023-03-07T15:17:44.653Z,7.73
2023-03-07T15:20:47.695Z,4.43
2023-03-07T15:23:56.411Z,4.68
2023-03-07T15:26:59.971Z,4.67
2023-03-07T15:33:15.555Z,8.40
2023-03-07T15:36:26.806Z,5.75
2023-03-07T15:39:34.483Z,3.00
2023-03-07T15:42:49.422Z,7.63
2023-03-07T15:46:01.729Z,5.57
2023-03-07T15:49:04.714Z,7.00
2023-03-07T15:52:07.716Z,6.13
2023-03-07T15:55:18.737Z,5.28
2023-03-07T15:58:22.785Z,6.43
2023-03-07T16:01:26.894Z,3.03
2023-03-07T16:04:37.323Z,7.47
2023-03-07T16:07:39.872Z,4.43
2023-03-07T16:10:47.890Z,5.73
2023-03-07T16:13:50.864Z,7.03
2023-03-07T16:16:54.623Z,5.53
2023-03-07T16:22:59.871Z,5.67
2023-03-07T16:26:05.971Z,7.60
2023-03-07T16:29:12.677Z,5.20
2023-03-07T16:32:17.430Z,5.20
2023-03-07T16:35:21.377Z,4.27
2023-03-07T16:38:23.865Z,8.03
2023-03-07T16:41:27.836Z,4.43
2023-03-07T16:44:30.664Z,6.53
2023-03-07T16:47:33.161Z,5.95
2023-03-07T16:50:35.707Z,8.07
2023-03-07T16:53:38.392Z,6.03
2023-03-07T16:56:45.133Z,6.00
2023-03-07T16:59:48.362Z,5.57
2023-03-07T17:02:52.644Z,6.20
2023-03-07T17:05:55.203Z,5.93
2023-03-07T17:08:57.822Z,4.53
2023-03-07T17:12:04.152Z,18.67
2023-03-07T17:15:08.192Z,6.67
2023-03-07T17:18:11.783Z,5.53
2023-03-07T17:21:15.395Z,4.80
2023-03-07T17:24:17.910Z,5.50
2023-03-07T17:27:21.858Z,5.53
2023-03-07T17:30:26.092Z,6.13
2023-03-07T17:33:28.705Z,12.63
2023-03-07T17:36:32.353Z,4.80
2023-03-07T17:39:35.556Z,6.00
2023-03-07T17:42:40.415Z,7.30
2023-03-07T17:45:42.945Z,6.47
2023-03-07T17:48:45.471Z,5.00
2023-03-07T17:51:48.768Z,8.80
2023-03-07T17:54:51.560Z,7.97
2023-03-07T17:57:55.470Z,8.60
2023-03-07T18:00:57.955Z,6.37
2023-03-07T18:04:00.873Z,8.00
2023-03-07T18:07:04.556Z,7.18
2023-03-07T18:10:08.999Z,9.93
2023-03-07T18:13:14.862Z,8.17
2023-03-07T18:16:17.496Z,6.67
2023-03-07T18:19:26.427Z,8.33
2023-03-07T18:22:29.721Z,7.57
2023-03-07T18:25:32.249Z,11.37
2023-03-07T18:28:37.557Z,8.23
2023-03-07T18:31:40.075Z,10.30
2023-03-07T18:34:42.616Z,6.40
2023-03-07T18:37:45.646Z,7.97
2023-03-07T18:40:48.478Z,8.57
2023-03-07T18:43:53.893Z,7.00
2023-03-07T18:46:56.520Z,9.70
2023-03-07T18:49:59.102Z,9.40
2023-03-07T18:53:01.664Z,19.83
2023-03-07T18:56:04.828Z,6.87
2023-03-07T18:59:08.659Z,7.47
2023-03-07T19:05:14.044Z,7.90
2023-03-07T19:08:17.640Z,12.63
2023-03-07T19:11:21.074Z,5.40
2023-03-07T19:14:26.280Z,7.30
2023-03-07T19:17:29.138Z,7.47
2023-03-07T19:20:31.610Z,8.23
2023-03-07T19:23:34.114Z,5.97
2023-03-07T19:26:36.670Z,7.33
2023-03-07T19:29:40.574Z,7.60
2023-03-07T19:32:43.453Z,9.37
2023-03-07T19:35:45.984Z,9.00
2023-03-07T19:38:49.149Z,10.07
2023-03-07T19:41:51.631Z,7.18
2023-03-07T19:44:56.055Z,9.50
2023-03-07T19:47:58.743Z,7.07
2023-03-07T19:51:01.667Z,8.10
2023-03-07T19:54:04.469Z,6.47
2023-03-07T19:57:09.132Z,6.50
2023-03-07T20:00:14.780Z,6.50
2023-03-07T20:03:18.832Z,8.63
2023-03-07T20:06:22.799Z,10.13
2023-03-07T20:09:25.488Z,9.13
2023-03-07T20:12:27.994Z,7.07
2023-03-07T20:15:32.338Z,7.93
2023-03-07T20:18:35.519Z,10.03
2023-03-07T20:21:38.074Z,6.13
2023-03-07T20:24:40.609Z,8.07
2023-03-07T20:27:43.075Z,7.27
2023-03-07T20:30:48.142Z,7.68
2023-03-07T20:33:51.057Z,9.20
2023-03-07T20:36:54.708Z,6.80
2023-03-07T20:39:57.213Z,7.55
2023-03-07T20:43:00.910Z,6.13
2023-03-07T20:46:05.461Z,6.07
2023-03-07T20:49:08.456Z,5.87
2023-03-07T20:52:11.046Z,5.93
2023-03-07T20:55:13.630Z,5.73
2023-03-07T20:58:16.393Z,4.13
2023-03-07T21:01:21.011Z,7.10
2023-03-07T21:04:23.622Z,5.33
2023-03-07T21:07:26.241Z,4.67
2023-03-07T21:10:28.849Z,6.33
2023-03-07T21:13:31.792Z,5.30
2023-03-07T21:16:35.767Z,9.20
2023-03-07T21:19:38.564Z,4.17
2023-03-07T21:22:41.103Z,5.47
2023-03-07T21:25:45.027Z,7.43
2023-03-07T21:31:51.682Z,4.97
2023-03-07T21:34:54.293Z,6.70
2023-03-07T21:37:56.775Z,5.00
2023-03-07T21:40:59.429Z,5.53
2023-03-07T21:44:02.257Z,4.33
2023-03-07T21:47:06.252Z,8.00
2023-03-07T21:50:10.257Z,8.57
2023-03-07T21:53:12.910Z,7.80
2023-03-07T21:56:17.623Z,4.50
2023-03-07T21:59:20.140Z,5.87
2023-03-07T22:02:24.142Z,5.07
2023-03-07T22:05:26.777Z,6.27
2023-03-07T22:08:29.265Z,6.30
2023-03-07T22:11:31.843Z,6.97
2023-03-07T22:14:34.503Z,6.23
2023-03-07T22:17:38.332Z,5.67
2023-03-07T22:23:43.518Z,5.27
2023-03-07T22:26:45.963Z,8.27
2023-03-07T22:29:48.679Z,6.60
2023-03-07T22:32:52.528Z,6.77
2023-03-07T22:38:58.880Z,7.32
2023-03-07T22:42:01.797Z,6.15
2023-03-07T22:45:04.951Z,9.33
2023-03-07T22:48:08.755Z,5.43
2023-03-07T22:54:16.811Z,10.23
2023-03-07T22:57:19.291Z,6.07
2023-03-07T23:00:22.345Z,8.37
2023-03-07T23:03:26.664Z,7.45
2023-03-07T23:06:30.889Z,8.87
2023-03-07T23:09:33.918Z,6.77
2023-03-07T23:12:36.412Z,11.88
2023-03-07T23:15:40.776Z,8.30
2023-03-07T23:18:45.750Z,9.03
2023-03-07T23:21:48.297Z,9.50
2023-03-07T23:24:50.848Z,11.43
2023-03-07T23:27:53.448Z,7.67
2023-03-07T23:30:56.203Z,9.83
2023-03-07T23:34:01.785Z,11.93
2023-03-07T23:37:04.313Z,10.07
2023-03-07T23:40:08.248Z,10.97
2023-03-07T23:46:14.754Z,12.57
2023-03-07T23:49:18.648Z,11.05
2023-03-07T23:55:23.711Z,12.87
2023-03-07T23:58:26.614Z,12.40
